createdAt,value
2023-03-30T00:00:20.184Z,10.92
2023-03-30T00:02:53.878Z,10.93
2023-03-30T00:05:25.997Z,10.95
2023-03-30T00:07:58.276Z,10.97
2023-03-30T00:10:30.069Z,10.98
2023-03-30T00:13:02.077Z,10.99
2023-03-30T00:15:36.178Z,10.99
2023-03-30T00:18:09.372Z,11.01
2023-03-30T00:20:43.414Z,11.00
2023-03-30T00:23:15.645Z,10.99
2023-03-30T00:25:47.221Z,10.97
2023-03-30T00:28:18.764Z,10.96
2023-03-30T00:30:50.484Z,10.96
2023-03-30T00:33:33.589Z,10.94
2023-03-30T00:36:09.219Z,10.92
2023-03-30T00:38:41.076Z,10.89
2023-03-30T00:41:13.078Z,10.91
2023-03-30T00:43:59.249Z,10.92
2023-03-30T00:46:31.738Z,10.90
2023-03-30T00:49:08.956Z,10.90
2023-03-30T00:51:42.411Z,10.88
2023-03-30T00:54:19.007Z,10.89
2023-03-30T00:56:51.229Z,10.91
2023-03-30T00:59:22.955Z,10.89
2023-03-30T01:01:55.364Z,10.87
2023-03-30T01:04:28.366Z,10.86
2023-03-30T01:07:00.931Z,10.86
2023-03-30T01:09:32.487Z,10.86
2023-03-30T01:12:05.309Z,10.85
2023-03-30T01:14:38.543Z,10.88
2023-03-30T01:17:28.268Z,10.90
2023-03-30T01:20:30.611Z,10.90
2023-03-30T01:23:39.510Z,10.92
2023-03-30T01:26:18.055Z,10.96
2023-03-30T01:29:06.068Z,10.99
2023-03-30T01:31:53.074Z,11.01
2023-03-30T01:34:43.001Z,11.02
2023-03-30T01:37:40.622Z,11.01
2023-03-30T01:40:27.963Z,11.05
2023-03-30T01:43:11.228Z,11.06
2023-03-30T01:45:44.887Z,11.07
2023-03-30T01:48:35.722Z,11.07
2023-03-30T01:51:11.514Z,11.06
2023-03-30T01:53:55.340Z,11.09
2023-03-30T01:56:33.107Z,11.15
2023-03-30T01:59:10.582Z,11.16
2023-03-30T02:01:51.013Z,11.18
2023-03-30T02:04:24.570Z,11.22
2023-03-30T02:07:01.017Z,11.21
2023-03-30T02:09:36.443Z,11.25
2023-03-30T02:12:10.497Z,11.31
2023-03-30T02:14:42.624Z,11.39
2023-03-30T02:17:18.266Z,11.44
2023-03-30T02:19:50.976Z,11.48
2023-03-30T02:22:23.894Z,11.52
2023-03-30T02:24:57.834Z,11.56
2023-03-30T02:27:29.762Z,11.66
2023-03-30T02:30:01.692Z,11.79
2023-03-30T02:32:45.843Z,11.87
2023-03-30T02:35:50.127Z,11.93
2023-03-30T02:38:35.332Z,11.96
2023-03-30T02:41:28.393Z,11.96
2023-03-30T02:44:17.756Z,11.93
2023-03-30T02:47:18.133Z,11.95
2023-03-30T02:49:59.984Z,11.96
2023-03-30T02:53:23.474Z,11.96
2023-03-30T02:56:08.910Z,12.02
2023-03-30T02:59:05.120Z,12.01
2023-03-30T03:01:50.726Z,12.01
2023-03-30T03:04:23.560Z,12.00
2023-03-30T03:06:55.800Z,11.96
2023-03-30T03:09:29.884Z,11.96
2023-03-30T03:12:01.438Z,11.90
2023-03-30T03:14:32.929Z,11.86
2023-03-30T03:17:05.829Z,11.83
2023-03-30T03:19:37.388Z,11.84
2023-03-30T03:22:08.870Z,11.83
2023-03-30T03:24:40.751Z,11.79
2023-03-30T03:27:12.308Z,11.77
2023-03-30T03:29:43.813Z,11.74
2023-03-30T03:32:17.713Z,11.75
2023-03-30T03:34:49.228Z,11.74
2023-03-30T03:37:20.871Z,11.65
2023-03-30T03:39:52.433Z,11.59
2023-03-30T03:42:24.077Z,11.51
2023-03-30T03:44:55.723Z,11.40
2023-03-30T03:47:27.299Z,11.37
2023-03-30T03:49:59.566Z,11.38
2023-03-30T03:52:31.231Z,11.42
2023-03-30T03:55:04.517Z,11.43
2023-03-30T03:57:36.986Z,11.43
2023-03-30T04:00:16.365Z,11.42
2023-03-30T04:02:47.975Z,11.40
2023-03-30T04:05:19.540Z,11.38
2023-03-30T04:07:53.481Z,11.33
2023-03-30T04:10:25.384Z,11.34
2023-03-30T04:12:57.849Z,11.33
2023-03-30T04:15:29.344Z,11.30
2023-03-30T04:18:01.770Z,11.25
2023-03-30T04:20:33.367Z,11.23
2023-03-30T04:23:04.891Z,11.19
2023-03-30T04:25:36.527Z,11.14
2023-03-30T04:28:08.215Z,11.05
2023-03-30T04:30:40.988Z,10.99
2023-03-30T04:33:14.569Z,11.02
2023-03-30T04:35:46.189Z,10.97
2023-03-30T04:38:22.240Z,10.98
2023-03-30T04:40:55.158Z,10.93
2023-03-30T04:43:26.761Z,10.92
2023-03-30T04:45:58.346Z,10.89
2023-03-30T04:48:29.851Z,10.86
2023-03-30T04:51:01.627Z,10.86
2023-03-30T04:53:34.816Z,10.87
2023-03-30T04:56:06.677Z,10.89
2023-03-30T04:58:38.227Z,10.86
2023-03-30T05:01:10.288Z,10.85
2023-03-30T05:03:41.835Z,10.86
2023-03-30T05:06:13.474Z,10.90
2023-03-30T05:08:45.000Z,10.91
2023-03-30T05:11:16.543Z,10.91
2023-03-30T05:13:51.176Z,10.92
2023-03-30T05:16:22.858Z,10.94
2023-03-30T05:18:54.382Z,10.96
2023-03-30T05:21:26.180Z,10.98
2023-03-30T05:23:58.295Z,10.99
2023-03-30T05:26:30.573Z,10.99
2023-03-30T05:29:02.163Z,10.93
2023-03-30T05:31:33.775Z,10.97
2023-03-30T05:34:05.877Z,10.97
2023-03-30T05:36:38.077Z,10.96
2023-03-30T05:39:09.922Z,10.95
2023-03-30T05:41:41.483Z,10.94
2023-03-30T05:44:13.015Z,10.93
2023-03-30T05:46:44.817Z,10.93
2023-03-30T05:49:16.481Z,10.93
2023-03-30T05:51:48.122Z,10.94
2023-03-30T05:54:19.882Z,10.94
2023-03-30T05:56:52.514Z,10.96
2023-03-30T05:59:24.513Z,10.96
2023-03-30T06:01:56.379Z,10.99
2023-03-30T06:04:28.170Z,11.00
2023-03-30T06:06:59.730Z,10.99
2023-03-30T06:09:31.906Z,11.04
2023-03-30T06:12:04.292Z,11.10
2023-03-30T06:14:35.711Z,11.11
2023-03-30T06:17:08.721Z,11.19
2023-03-30T06:19:41.675Z,11.22
2023-03-30T06:22:13.271Z,11.25
2023-03-30T06:24:44.748Z,11.28
2023-03-30T06:27:16.302Z,11.29
2023-03-30T06:29:47.852Z,11.28
2023-03-30T06:32:19.460Z,11.24
2023-03-30T06:34:51.050Z,11.29
2023-03-30T06:37:23.090Z,11.29
2023-03-30T06:39:54.713Z,11.29
2023-03-30T06:42:27.897Z,11.30
2023-03-30T06:44:59.406Z,11.31
2023-03-30T06:47:30.995Z,11.33
2023-03-30T06:50:03.658Z,11.30
2023-03-30T06:52:36.408Z,11.25
2023-03-30T06:55:08.211Z,11.26
2023-03-30T06:57:39.859Z,11.28
2023-03-30T07:00:13.872Z,11.34
2023-03-30T07:02:45.509Z,11.32
2023-03-30T07:05:17.319Z,11.40
2023-03-30T07:07:48.937Z,11.48
2023-03-30T07:10:21.371Z,11.53
2023-03-30T07:12:53.172Z,11.64
2023-03-30T07:15:24.814Z,11.72
2023-03-30T07:17:56.412Z,11.78
2023-03-30T07:20:28.090Z,11.85
2023-03-30T07:22:59.606Z,11.93
2023-03-30T07:25:31.594Z,12.05
2023-03-30T07:28:06.291Z,12.11
2023-03-30T07:30:39.050Z,12.12
2023-03-30T07:33:11.455Z,12.10
2023-03-30T07:35:44.978Z,12.08
2023-03-30T07:38:16.574Z,12.08
2023-03-30T07:40:48.568Z,12.06
2023-03-30T07:43:20.078Z,12.05
2023-03-30T07:45:51.997Z,12.05
2023-03-30T07:48:23.752Z,12.07
2023-03-30T07:51:03.671Z,12.04
2023-03-30T07:53:36.629Z,12.10
2023-03-30T07:56:08.313Z,12.08
2023-03-30T07:58:40.501Z,12.12
2023-03-30T08:01:13.195Z,12.16
2023-03-30T08:03:48.652Z,12.18
2023-03-30T08:06:20.345Z,12.17
2023-03-30T08:08:52.506Z,12.19
2023-03-30T08:11:24.083Z,12.29
2023-03-30T08:13:55.624Z,12.36
2023-03-30T08:16:27.309Z,12.40
2023-03-30T08:18:58.910Z,12.47
2023-03-30T08:21:30.454Z,12.54
2023-03-30T08:24:02.149Z,12.60
2023-03-30T08:26:33.807Z,12.63
2023-03-30T08:29:07.032Z,12.77
2023-03-30T08:31:41.718Z,12.81
2023-03-30T08:34:13.574Z,12.92
2023-03-30T08:36:45.103Z,12.94
2023-03-30T08:39:16.834Z,12.95
2023-03-30T08:42:21.253Z,12.97
2023-03-30T08:44:57.137Z,12.97
2023-03-30T08:47:42.076Z,12.99
2023-03-30T08:50:32.200Z,13.11
2023-03-30T08:53:06.104Z,13.22
2023-03-30T08:55:47.125Z,13.35
2023-03-30T08:58:26.411Z,13.46
2023-03-30T09:01:25.239Z,13.63
2023-03-30T09:04:18.957Z,13.83
2023-03-30T09:06:53.753Z,13.97
2023-03-30T09:09:30.130Z,13.98
2023-03-30T09:12:11.865Z,14.10
2023-03-30T09:15:05.494Z,14.21
2023-03-30T09:17:39.136Z,14.39
2023-03-30T09:20:23.988Z,14.38
2023-03-30T09:22:59.775Z,14.60
2023-03-30T09:25:53.608Z,14.82
2023-03-30T09:28:59.199Z,14.98
2023-03-30T09:31:41.290Z,15.29
2023-03-30T09:34:27.371Z,15.43
2023-03-30T09:37:09.395Z,15.49
2023-03-30T09:39:41.488Z,15.61
2023-03-30T09:42:22.000Z,15.75
2023-03-30T09:45:25.446Z,15.83
2023-03-30T09:47:57.003Z,15.90
2023-03-30T09:50:29.245Z,15.83
2023-03-30T09:53:07.184Z,15.75
2023-03-30T09:55:38.756Z,15.61
2023-03-30T09:58:14.997Z,15.57
2023-03-30T10:01:00.737Z,15.56
2023-03-30T10:03:33.123Z,15.26
2023-03-30T10:06:08.141Z,15.61
2023-03-30T10:08:49.931Z,15.81
2023-03-30T10:11:35.397Z,15.70
2023-03-30T10:14:23.548Z,15.79
2023-03-30T10:16:56.277Z,16.03
2023-03-30T10:19:29.798Z,16.05
2023-03-30T10:22:04.929Z,16.25
2023-03-30T10:24:49.428Z,16.21
2023-03-30T10:27:34.032Z,16.27
2023-03-30T10:30:12.169Z,15.86
2023-03-30T10:32:46.852Z,15.75
2023-03-30T10:35:23.629Z,15.52
2023-03-30T10:37:56.808Z,15.26
2023-03-30T10:40:37.685Z,15.19
2023-03-30T10:43:15.759Z,15.24
2023-03-30T10:45:50.006Z,15.05
2023-03-30T10:49:00.287Z,14.97
2023-03-30T10:52:08.710Z,14.86
2023-03-30T10:54:48.801Z,14.79
2023-03-30T10:57:24.860Z,14.89
2023-03-30T11:00:15.502Z,14.72
2023-03-30T11:02:57.366Z,14.56
2023-03-30T11:05:35.933Z,14.63
2023-03-30T11:08:12.587Z,14.61
2023-03-30T11:10:48.023Z,14.44
2023-03-30T11:13:40.226Z,14.13
2023-03-30T11:16:33.449Z,13.96
2023-03-30T11:19:18.616Z,13.78
2023-03-30T11:21:59.564Z,13.63
2023-03-30T11:24:35.817Z,13.38
2023-03-30T11:27:29.319Z,13.16
2023-03-30T11:30:14.439Z,12.91
2023-03-30T11:33:04.637Z,12.74
2023-03-30T11:35:58.104Z,12.62
2023-03-30T11:38:44.588Z,12.33
2023-03-30T11:41:23.494Z,12.21
2023-03-30T11:43:56.219Z,12.24
2023-03-30T11:46:42.289Z,12.08
2023-03-30T11:49:25.782Z,11.90
2023-03-30T11:52:22.716Z,11.77
2023-03-30T11:55:29.787Z,11.58
2023-03-30T11:58:14.701Z,11.45
2023-03-30T12:01:15.304Z,11.27
2023-03-30T12:03:52.156Z,11.13
2023-03-30T12:06:32.366Z,10.95
2023-03-30T12:09:11.465Z,10.82
2023-03-30T12:11:54.960Z,10.79
2023-03-30T12:14:40.094Z,10.68
2023-03-30T12:18:10.809Z,10.57
2023-03-30T12:21:10.226Z,10.53
2023-03-30T12:23:55.935Z,10.60
2023-03-30T12:26:34.463Z,10.49
2023-03-30T12:29:52.784Z,10.59
2023-03-30T12:32:07.389Z,10.71
2023-03-30T12:34:41.608Z,10.83
2023-03-30T12:37:24.142Z,10.99
2023-03-30T12:40:29.484Z,11.07
2023-03-30T12:43:14.857Z,11.22
2023-03-30T12:46:03.469Z,11.14
2023-03-30T12:49:10.861Z,11.30
2023-03-30T12:51:51.461Z,11.19
2023-03-30T12:54:26.036Z,11.14
2023-03-30T12:57:36.628Z,11.14
2023-03-30T13:00:26.229Z,11.02
2023-03-30T13:03:05.556Z,11.00
2023-03-30T13:05:42.914Z,11.00
2023-03-30T13:08:39.110Z,11.04
2023-03-30T13:11:18.904Z,10.88
2023-03-30T13:14:01.472Z,11.01
2023-03-30T13:17:10.826Z,11.02
2023-03-30T13:19:45.602Z,11.06
2023-03-30T13:22:18.688Z,11.06
2023-03-30T13:24:55.369Z,10.92
2023-03-30T13:27:35.593Z,10.92
2023-03-30T13:30:07.793Z,10.89
2023-03-30T13:32:42.632Z,10.99
2023-03-30T13:35:39.159Z,11.21
2023-03-30T13:38:20.080Z,11.29
2023-03-30T13:41:05.171Z,11.09
2023-03-30T13:44:04.320Z,11.02
2023-03-30T13:46:52.556Z,10.94
2023-03-30T13:50:05.622Z,11.05
2023-03-30T13:52:47.170Z,11.01
2023-03-30T13:55:33.326Z,10.98
2023-03-30T13:58:16.053Z,11.01
2023-03-30T14:00:50.489Z,11.02
2023-03-30T14:03:42.163Z,11.01
2023-03-30T14:06:14.333Z,10.98
2023-03-30T14:08:49.054Z,10.94
2023-03-30T14:11:24.140Z,11.00
2023-03-30T14:13:55.733Z,10.97
2023-03-30T14:16:34.065Z,11.01
2023-03-30T14:19:35.857Z,11.04
2023-03-30T14:22:19.844Z,11.15
2023-03-30T14:25:02.863Z,11.09
2023-03-30T14:27:39.884Z,11.14
2023-03-30T14:30:30.759Z,11.09
2023-03-30T14:33:10.432Z,11.03
2023-03-30T14:36:15.382Z,11.09
2023-03-30T14:38:49.579Z,11.18
2023-03-30T14:41:31.523Z,11.29
2023-03-30T14:44:08.549Z,11.49
2023-03-30T14:46:43.125Z,11.62
2023-03-30T14:49:28.087Z,11.77
2023-03-30T14:52:15.031Z,11.98
2023-03-30T14:55:05.317Z,12.24
2023-03-30T14:57:40.388Z,12.68
2023-03-30T15:00:21.090Z,12.54
2023-03-30T15:02:58.972Z,12.21
2023-03-30T15:05:37.160Z,12.22
2023-03-30T15:08:24.970Z,11.98
2023-03-30T15:11:09.543Z,11.70
2023-03-30T15:13:52.946Z,11.55
2023-03-30T15:16:28.707Z,11.44
2023-03-30T15:19:10.799Z,11.47
2023-03-30T15:21:43.227Z,11.37
2023-03-30T15:24:21.574Z,11.32
2023-03-30T15:26:58.480Z,11.35
2023-03-30T15:29:30.172Z,11.38
2023-03-30T15:32:07.179Z,11.43
2023-03-30T15:35:01.230Z,11.45
2023-03-30T15:37:35.148Z,11.63
2023-03-30T15:40:26.569Z,12.15
2023-03-30T15:43:16.357Z,13.22
2023-03-30T15:46:13.879Z,13.47
2023-03-30T15:48:50.597Z,12.81
2023-03-30T15:51:40.076Z,12.52
2023-03-30T15:54:35.984Z,12.35
2023-03-30T15:57:11.163Z,12.28
2023-03-30T15:59:52.285Z,12.85
2023-03-30T16:02:37.863Z,14.15
2023-03-30T16:05:18.215Z,15.37
2023-03-30T16:07:50.233Z,15.88
2023-03-30T16:10:28.358Z,15.67
2023-03-30T16:13:01.367Z,15.78
2023-03-30T16:15:33.840Z,15.46
2023-03-30T16:18:05.987Z,15.02
2023-03-30T16:20:37.408Z,14.27
2023-03-30T16:23:09.301Z,13.89
2023-03-30T16:25:45.194Z,13.61
2023-03-30T16:28:18.486Z,13.31
2023-03-30T16:30:52.545Z,12.81
2023-03-30T16:33:24.500Z,12.66
2023-03-30T16:35:56.084Z,12.54
2023-03-30T16:38:27.622Z,12.33
2023-03-30T16:40:59.915Z,12.19
2023-03-30T16:43:31.752Z,12.05
2023-03-30T16:46:03.350Z,12.01
2023-03-30T16:48:35.003Z,11.84
2023-03-30T16:51:08.086Z,11.69
2023-03-30T16:53:40.768Z,11.65
2023-03-30T16:56:19.599Z,11.59
2023-03-30T16:58:51.401Z,11.60
2023-03-30T17:01:23.581Z,11.35
2023-03-30T17:03:55.125Z,11.37
2023-03-30T17:06:26.637Z,11.37
2023-03-30T17:08:58.168Z,11.30
2023-03-30T17:11:29.758Z,11.23
2023-03-30T17:14:01.243Z,11.19
2023-03-30T17:16:34.186Z,11.05
2023-03-30T17:19:06.521Z,11.15
2023-03-30T17:21:37.965Z,11.05
2023-03-30T17:24:10.632Z,11.12
2023-03-30T17:26:42.481Z,11.15
2023-03-30T17:29:13.976Z,11.02
2023-03-30T17:31:46.096Z,11.00
2023-03-30T17:34:17.559Z,11.01
2023-03-30T17:36:49.130Z,10.99
2023-03-30T17:39:20.685Z,10.92
2023-03-30T17:41:52.231Z,10.93
2023-03-30T17:44:24.213Z,10.93
2023-03-30T17:46:56.666Z,10.89
2023-03-30T17:49:28.138Z,10.87
2023-03-30T17:51:59.704Z,10.87
2023-03-30T17:54:31.239Z,10.88
2023-03-30T17:57:04.455Z,10.84
2023-03-30T17:59:36.302Z,10.84
2023-03-30T18:02:08.733Z,10.84
2023-03-30T18:04:40.557Z,10.84
2023-03-30T18:07:12.653Z,10.82
2023-03-30T18:09:44.173Z,10.77
2023-03-30T18:12:16.238Z,10.73
2023-03-30T18:14:47.724Z,10.71
2023-03-30T18:17:19.275Z,10.69
2023-03-30T18:19:51.644Z,10.74
2023-03-30T18:22:23.214Z,10.74
2023-03-30T18:24:56.204Z,10.73
2023-03-30T18:27:27.741Z,10.69
2023-03-30T18:29:59.413Z,10.68
2023-03-30T18:32:44.270Z,10.64
2023-03-30T18:35:20.030Z,10.60
2023-03-30T18:37:55.687Z,10.54
2023-03-30T18:40:34.650Z,10.55
2023-03-30T18:43:06.529Z,10.50
2023-03-30T18:45:50.020Z,10.48
2023-03-30T18:48:22.637Z,10.49
2023-03-30T18:50:56.467Z,10.43
2023-03-30T18:53:33.371Z,10.40
2023-03-30T18:56:06.901Z,10.39
2023-03-30T18:58:41.934Z,10.38
2023-03-30T19:01:16.415Z,10.33
2023-03-30T19:03:49.782Z,10.31
2023-03-30T19:06:25.922Z,10.30
2023-03-30T19:08:57.470Z,10.29
2023-03-30T19:11:30.227Z,10.27
2023-03-30T19:14:09.669Z,10.21
2023-03-30T19:16:41.904Z,10.14
2023-03-30T19:19:15.821Z,10.15
2023-03-30T19:21:47.501Z,10.16
2023-03-30T19:24:20.449Z,10.14
2023-03-30T19:26:59.537Z,10.15
2023-03-30T19:29:31.247Z,10.14
2023-03-30T19:32:02.944Z,10.12
2023-03-30T19:34:36.533Z,10.12
2023-03-30T19:37:08.776Z,10.10
2023-03-30T19:39:40.194Z,10.12
2023-03-30T19:42:11.938Z,10.13
2023-03-30T19:44:46.494Z,10.19
2023-03-30T19:47:18.021Z,10.24
2023-03-30T19:49:49.531Z,10.19
2023-03-30T19:52:23.207Z,10.19
2023-03-30T19:54:54.937Z,10.23
2023-03-30T19:57:26.504Z,10.21
2023-03-30T19:59:59.716Z,10.08
2023-03-30T20:02:33.366Z,10.07
2023-03-30T20:05:06.888Z,10.06
2023-03-30T20:07:39.245Z,9.97
2023-03-30T20:10:12.694Z,9.76
2023-03-30T20:12:44.404Z,9.61
2023-03-30T20:15:18.357Z,9.54
2023-03-30T20:17:49.984Z,9.52
2023-03-30T20:20:25.897Z,9.55
2023-03-30T20:22:57.610Z,9.57
2023-03-30T20:25:29.577Z,9.60
2023-03-30T20:28:02.566Z,9.60
2023-03-30T20:30:37.347Z,9.61
2023-03-30T20:33:09.049Z,9.55
2023-03-30T20:35:41.744Z,9.54
2023-03-30T20:38:14.698Z,9.56
2023-03-30T20:41:00.102Z,9.60
2023-03-30T20:43:40.653Z,9.59
2023-03-30T20:46:22.034Z,9.62
2023-03-30T20:49:01.946Z,9.62
2023-03-30T20:51:34.755Z,9.60
2023-03-30T20:54:06.674Z,9.52
2023-03-30T20:56:38.382Z,9.57
2023-03-30T20:59:11.002Z,9.61
2023-03-30T21:01:43.998Z,9.64
2023-03-30T21:04:16.993Z,9.63
2023-03-30T21:06:49.842Z,9.65
2023-03-30T21:09:21.547Z,9.65
2023-03-30T21:11:53.198Z,9.63
2023-03-30T21:14:24.997Z,9.61
2023-03-30T21:16:56.555Z,9.61
2023-03-30T21:19:29.484Z,9.50
2023-03-30T21:22:01.294Z,9.57
2023-03-30T21:24:34.390Z,9.61
2023-03-30T21:27:08.434Z,9.63
2023-03-30T21:29:40.348Z,9.63
2023-03-30T21:32:11.927Z,9.69
2023-03-30T21:34:43.709Z,9.69
2023-03-30T21:37:15.436Z,9.69
2023-03-30T21:39:47.109Z,9.67
2023-03-30T21:42:18.744Z,9.70
2023-03-30T21:44:51.372Z,9.63
2023-03-30T21:47:23.047Z,9.64
2023-03-30T21:49:54.648Z,9.62
2023-03-30T21:52:26.394Z,9.59
2023-03-30T21:54:58.216Z,9.48
2023-03-30T21:57:30.430Z,9.32
2023-03-30T22:00:02.170Z,9.31
2023-03-30T22:02:33.820Z,9.28
2023-03-30T22:05:06.167Z,9.23
2023-03-30T22:07:37.559Z,9.16
2023-03-30T22:10:09.515Z,9.15
2023-03-30T22:12:41.463Z,9.09
2023-03-30T22:15:13.045Z,9.03
2023-03-30T22:17:45.908Z,8.96
2023-03-30T22:20:18.334Z,8.92
2023-03-30T22:22:49.984Z,8.91
2023-03-30T22:25:21.710Z,8.91
2023-03-30T22:27:57.915Z,8.87
2023-03-30T22:30:31.006Z,8.88
2023-03-30T22:33:02.735Z,8.87
2023-03-30T22:35:39.022Z,8.89
2023-03-30T22:38:11.854Z,8.88
2023-03-30T22:40:43.614Z,8.88
2023-03-30T22:43:15.119Z,8.90
2023-03-30T22:45:46.587Z,8.88
2023-03-30T22:48:17.933Z,8.87
2023-03-30T22:50:49.446Z,8.88
2023-03-30T22:53:20.847Z,8.89
2023-03-30T22:55:54.643Z,8.80
2023-03-30T22:58:27.382Z,8.79
2023-03-30T23:00:59.580Z,8.79
2023-03-30T23:03:31.420Z,8.77
2023-03-30T23:06:03.530Z,8.75
2023-03-30T23:08:36.926Z,8.77
2023-03-30T23:11:08.477Z,8.78
2023-03-30T23:13:42.121Z,8.75
2023-03-30T23:16:13.798Z,8.75
2023-03-30T23:18:45.219Z,8.72
2023-03-30T23:21:17.425Z,8.73
2023-03-30T23:23:48.829Z,8.69
2023-03-30T23:26:20.248Z,8.70
2023-03-30T23:28:52.685Z,8.68
2023-03-30T23:31:29.463Z,8.72
2023-03-30T23:34:00.947Z,8.70
2023-03-30T23:36:34.639Z,8.68
2023-03-30T23:39:06.000Z,8.70
2023-03-30T23:41:38.651Z,8.66
2023-03-30T23:44:10.575Z,8.61
2023-03-30T23:46:42.234Z,8.60
2023-03-30T23:49:15.870Z,8.56
2023-03-30T23:51:47.318Z,8.54
2023-03-30T23:54:18.744Z,8.56
2023-03-30T23:56:57.237Z,8.57
2023-03-30T23:59:28.806Z,8.60
